Terminal Aerodrome Forecast
Issued by NWS

Home | Current Version | Previous Version | Text Only | Print | Product List | Glossary On
Versions: 1 2 3 4 5 6 7 8 9 10 11 12 13
000
FTUS46 KPDT 041740
TAFDLS
TAF
KDLS 041740Z 0418/0518 31010KT P6SM SCT100 BKN250
     FM042200 32015KT P6SM VCSH SCT060 BKN080
      TEMPO 0422/0502 -RA BKN050 BKN100
     FM050600 VRB06KT P6SM VCSH OVC060=

USA.gov is the U.S. government's official web portal to all federal, state and local government web resources and services.